Latest Coastal Weather Observations for King Island Airport

IDT60701

Issued at 3:33 am EDT Sunday 11 December 2016 (issued every 10 minutes, with the page automatically refreshed every 10 minutes)

About coastal observations | Map of coastal stations | Coastal observations for TAS | Marine services | Other Formats
Station Details ID: 098017 Name: KING ISLAND AIRPORT Lat: -39.88 Lon: 143.88 Height: 37.0 m
Data from the previous 72 hours. | See also: Recent months at King Island Airport
Date/Time
EDT
Temp
°C
Wind Pressure Rain since
9am
mm
Weather Cloud Vis
km
Sea
Height
m
Swell
Dir  Spd
kts
Gust
kts
hPa Trend Height
m
Period
s
Dir
11/03:30am 9.7 SW 4 4 1022.8 - 0.4 - Partly cloudy 10 - - - -
11/03:00am 9.6 CALM 0 0 1023.0 - 0.4 - Partly cloudy 10 - - - -
11/02:30am 9.1 CALM 0 3 1023.1 - 0.4 - Partly cloudy 10 - - - -
11/02:00am 10.0 SSW 4 5 1022.9 - 0.4 - Partly cloudy 10 - - - -
11/01:30am 11.0 SW 6 8 1023.1 - 0.4 - - 10 - - - -
11/01:00am 11.6 SW 8 9 1023.3 - 0.4 - Partly cloudy 10 - - - -
11/12:30am 12.6 SW 9 13 1023.3 - 0.4 - Partly cloudy 10 - - - -
11/12:00am 12.4 SW 9 13 1023.5 - 0.4 - Cloudy 10 - - - -
 
Date/Time
EDT
Temp
°C
Wind Pressure Rain since
9am
mm
Weather Cloud Vis
km
Sea
Height
m
Swell
Dir  Spd
kts
Gust
kts
hPa Trend Height
m
Period
s
Dir
10/11:30pm 12.7 SW 8 13 1023.5 - 0.4 - Partly cloudy 10 - - - -
10/11:00pm 12.7 SW 9 15 1023.6 - 0.4 - Partly cloudy 10 - - - -
10/10:30pm 12.6 SW 9 12 1023.5 - 0.4 - Partly cloudy 10 - - - -
10/10:00pm 12.2 WSW 9 13 1023.5 - 0.4 - Partly cloudy 10 - - - -
10/09:30pm 11.9 WSW 6 7 1023.3 - 0.4 - Partly cloudy 10 - - - -
10/09:00pm 11.8 SW 14 20 1023.2 - 0.4 Showers Cloudy 9 - - - -
10/08:30pm 12.7 WSW 9 12 1022.9 - 0.2 - Partly cloudy 10 - - - -
10/08:00pm 12.8 WSW 10 15 1022.7 - 0.2 - Partly cloudy 10 - - - -
10/07:53pm 12.6 WSW 11 15 1022.7 - 0.2 - Partly cloudy 10 - - - -
10/07:30pm 12.8 WSW 11 14 1022.5 - 0.2 - Partly cloudy 10 - - - -
10/07:00pm 13.3 WSW 11 15 1022.2 - 0.2 - Partly cloudy 10 - - - -
10/06:59pm 13.5 WSW 11 16 1022.2 - 0.2 - Partly cloudy 10 - - - -
10/06:30pm 13.0 WSW 14 20 1022.2 - 0.2 - Partly cloudy 7 - - - -
10/06:00pm 13.9 WSW 13 16 1022.0 - 0.2 - Cloudy 10 - - - -
10/05:35pm 14.6 WSW 12 16 1022.3 - 0.2 - Partly cloudy 10 - - - -
10/05:30pm 13.7 WSW 12 18 1022.3 - 0.2 - Partly cloudy 10 - - - -
10/05:00pm 14.6 W 13 18 1022.3 - 0.2 - Partly cloudy 10 - - - -
10/04:46pm 13.9 WSW 15 20 1022.4 - 0.2 - Partly cloudy 10 - - - -
10/04:30pm 14.4 W 14 19 1022.5 - 0.2 - Partly cloudy 10 - - - -
10/04:26pm 15.6 W 13 19 1022.4 - 0.2 - Partly cloudy 10 - - - -
10/04:13pm 14.8 W 14 19 1022.4 - 0.2 - Partly cloudy 10 - - - -
10/04:00pm 14.8 WSW 15 19 1022.4 - 0.2 - Partly cloudy 10 - - - -
10/03:30pm 14.9 W 14 19 1022.6 - 0.2 - Partly cloudy 10 - - - -
10/03:00pm 15.1 WSW 14 19 1022.8 - 0.2 - Cloudy 10 - - - -
10/02:33pm 14.7 W 14 19 1023.0 - 0.2 - Partly cloudy 10 - - - -
10/02:30pm 14.3 W 14 20 1023.0 - 0.2 - Partly cloudy 10 - - - -
10/02:12pm 13.8 W 13 18 1023.2 - 0.2 - Partly cloudy 10 - - - -
10/02:00pm 13.1 W 14 18 1023.3 - 0.2 - Partly cloudy 5 - - - -
10/01:56pm 12.9 WSW 15 18 1023.3 - 0.2 - Partly cloudy 5 - - - -
10/01:40pm 15.3 WNW 13 17 1023.3 - 0.2 - Partly cloudy 10 - - - -
10/01:30pm 15.6 W 14 17 1023.3 - 0.2 - Partly cloudy 10 - - - -
10/01:00pm 14.6 W 14 18 1023.3 - 0.2 - Partly cloudy 10 - - - -
10/12:40pm 13.5 W 13 19 1023.3 - 0.2 - Partly cloudy 10 - - - -
10/12:36pm 14.1 W 12 17 1023.3 - 0.2 - Partly cloudy 10 - - - -
10/12:30pm 13.4 W 11 17 1023.4 - 0.2 - Partly cloudy 10 - - - -
10/12:15pm 13.7 W 15 26 1023.5 - 0.2 - Partly cloudy 5 - - - -
10/12:07pm 13.2 W 15 26 1023.5 - 0.0 - Partly cloudy 10 - - - -
10/12:00pm 14.3 W 13 17 1023.4 - 0.0 - Cloudy 10 - - - -
10/11:57am 14.1 W 13 17 1023.4 - 0.0 - Partly cloudy 10 - - - -
10/11:47am 14.0 WNW 12 17 1023.4 - 0.0 - Partly cloudy 5 - - - -
10/11:46am 13.7 WNW 12 17 1023.4 - 0.0 - Partly cloudy 5 - - - -
10/11:30am 15.0 WNW 13 16 1023.5 - 0.0 - Partly cloudy 10 - - - -
10/11:00am 13.8 WNW 13 16 1023.7 - 0.0 - Partly cloudy 10 - - - -
10/10:30am 14.1 W 9 15 1023.6 - 0.0 - Partly cloudy 10 - - - -
10/10:00am 13.9 W 11 16 1023.4 - 0.0 - Partly cloudy 10 - - - -
10/09:30am 13.5 W 10 15 1023.4 - 0.0 - Cloudy 10 - - - -
10/09:00am 13.5 W 10 14 1023.3 - 0.2 - Cloudy 10 - - - -
10/08:30am 12.9 WSW 9 12 1023.1 - 0.2 - Cloudy 10 - - - -
10/08:00am 12.7 W 9 12 1022.9 - 0.2 - Cloudy 10 - - - -
10/07:30am 12.6 WSW 9 15 1022.5 - 0.2 - Partly cloudy 10 - - - -
10/07:00am 12.2 WSW 8 11 1022.0 - 0.2 - Partly cloudy 10 - - - -
10/06:30am 11.9 WSW 7 10 1021.7 - 0.2 - Partly cloudy 10 - - - -
10/06:00am 11.7 WSW 7 10 1021.4 - 0.2 Drizzle Mostly cloudy 10 - - - -
10/05:30am 11.3 SW 5 7 1021.3 - 0.2 - Partly cloudy 10 - - - -
10/05:00am 11.7 SW 10 15 1021.0 - 0.2 - Partly cloudy 10 - - - -
10/04:30am 12.0 WSW 9 15 1020.8 - 0.2 - Cloudy 10 - - - -
10/04:00am 12.1 WSW 8 12 1020.6 - 0.2 - Cloudy 10 - - - -
10/03:30am 11.8 WSW 8 13 1020.7 - 0.2 - Cloudy 10 - - - -
10/03:00am 11.6 SW 9 14 1020.8 - 0.2 - Mostly cloudy 10 - - - -
10/02:30am 11.4 WSW 9 11 1020.9 - 0.2 - Partly cloudy 10 - - - -
10/02:00am 11.8 SW 8 12 1021.0 - 0.2 - Partly cloudy 10 - - - -
10/01:30am 11.8 WSW 7 9 1021.3 - 0.2 - Cloudy 10 - - - -
10/01:00am 11.9 WSW 8 11 1021.5 - 0.2 - Partly cloudy 10 - - - -
10/12:30am 11.7 SW 6 8 1021.6 - 0.2 - Cloudy 10 - - - -
10/12:00am 11.6 WSW 7 9 1021.7 - 0.2 - Cloudy 10 - - - -
 
Date/Time
EDT
Temp
°C
Wind Pressure Rain since
9am
mm
Weather Cloud Vis
km
Sea
Height
m
Swell
Dir  Spd
kts
Gust
kts
hPa Trend Height
m
Period
s
Dir
09/11:30pm 11.4 WSW 9 12 1021.8 - 0.2 - Cloudy 10 - - - -
09/11:00pm 11.3 W 9 14 1021.8 - 0.2 - Partly cloudy 10 - - - -
09/10:30pm 11.8 WSW 10 15 1021.8 - 0.2 - Partly cloudy 10 - - - -
09/10:00pm 11.7 SW 8 11 1021.7 - 0.2 - Cloudy 10 - - - -
09/09:30pm 11.6 SW 10 16 1021.5 - 0.2 - Partly cloudy 10 - - - -
09/09:00pm 11.5 SW 13 19 1021.2 - 0.2 Showers Cloudy 10 - - - -
09/08:30pm 11.3 SW 10 14 1021.1 - 0.2 - Partly cloudy 10 - - - -
09/08:00pm 12.0 SW 14 19 1020.7 - 0.2 - Partly cloudy 10 - - - -
09/07:30pm 12.3 SW 11 16 1020.3 - 0.2 - Partly cloudy 10 - - - -
09/07:00pm 12.2 SW 16 21 1020.0 - 0.2 - Partly cloudy 10 - - - -
09/06:30pm 12.5 SW 16 22 1019.7 - 0.2 - Partly cloudy 10 - - - -
09/06:00pm 13.0 SW 18 22 1019.5 - 0.2 - Cloudy 10 - - - -
09/05:30pm 13.1 SW 18 23 1019.2 - 0.2 - Partly cloudy 10 - - - -
09/05:00pm 12.4 SW 17 23 1019.2 - 0.2 - Partly cloudy 10 - - - -
09/04:30pm 13.6 SW 17 23 1018.9 - 0.2 - Partly cloudy 10 - - - -
09/04:00pm 13.0 SW 17 22 1018.7 - 0.2 - Partly cloudy 10 - - - -
09/03:41pm 13.4 SW 17 27 1018.7 - 0.2 - Partly cloudy 10 - - - -
09/03:30pm 13.9 SW 19 25 1018.6 - 0.2 - Partly cloudy 10 - - - -
09/03:00pm 12.2 SW 18 26 1018.4 - 0.2 - Cloudy 10 - - - -
09/02:30pm 14.3 SW 20 27 1018.0 - 0.2 - Partly cloudy 10 - - - -
09/02:00pm 14.1 SW 23 30 1017.8 - 0.2 - Partly cloudy 10 - - - -
09/01:30pm 13.1 WSW 18 25 1017.7 - 0.2 - Partly cloudy 10 - - - -
09/01:25pm 12.6 WSW 19 30 1017.8 - 0.2 - Partly cloudy 10 - - - -
09/01:00pm 13.6 SW 19 28 1017.5 - 0.2 - Partly cloudy 10 - - - -
09/12:54pm 12.7 SW 20 30 1017.4 - 0.2 - Partly cloudy 10 - - - -
09/12:30pm 13.4 SW 21 28 1017.0 - 0.2 - Partly cloudy 10 - - - -
09/12:02pm 13.4 SW 20 30 1016.8 - 0.0 - Partly cloudy 10 - - - -
09/12:00pm 13.1 SSW 21 30 1016.7 - 0.0 Drizzle Cloudy 10 - - - -
09/11:30am 12.7 SW 21 28 1016.2 - 0.0 - Partly cloudy 10 - - - -
09/11:00am 13.1 SW 20 31 1015.8 - 0.0 - Partly cloudy 10 - - - -
09/10:46am 11.9 SW 18 28 1015.8 - 0.0 - Partly cloudy 10 - - - -
09/10:30am 11.5 SW 20 27 1015.7 - 0.0 - Partly cloudy 10 - - - -
09/10:19am 12.5 SW 18 28 1015.4 - 0.0 - Partly cloudy 10 - - - -
09/10:00am 12.7 SSW 19 28 1015.4 - 0.0 - Partly cloudy 10 - - - -
09/09:30am 11.8 SW 21 31 1015.0 - 0.0 - Partly cloudy 10 - - - -
09/09:00am 11.4 SW 19 29 1014.7 - 1.2 - Cloudy 10 - - - -
09/08:30am 11.0 SSW 21 31 1014.0 - 1.2 - Partly cloudy 10 - - - -
09/08:13am 11.4 SW 22 32 1013.7 - 1.2 - Partly cloudy 10 - - - -
09/08:00am 11.6 SW 20 29 1013.5 - 1.2 - Partly cloudy 10 - - - -
09/07:42am 11.2 SW 21 31 1013.0 - 1.2 - Partly cloudy 10 - - - -
09/07:30am 11.5 SW 21 30 1012.6 - 1.2 - Partly cloudy 10 - - - -
09/07:00am 11.1 SW 22 29 1011.9 - 1.2 - Partly cloudy 10 - - - -
09/06:41am 10.8 SW 19 29 1011.4 - 1.2 - Partly cloudy 10 - - - -
09/06:30am 10.3 SSW 20 29 1011.3 - 1.2 - Partly cloudy 10 - - - -
09/06:02am 10.3 SW 19 29 1010.9 - 1.2 - Partly cloudy 10 - - - -
09/06:00am 10.3 SW 20 29 1010.9 - 1.2 Showers Mostly cloudy 10 - - - -
09/05:53am 10.1 SW 23 33 1010.7 - 1.2 - Partly cloudy 10 - - - -
09/05:30am 10.2 SSW 23 30 1010.3 - 1.2 - Partly cloudy 10 - - - -
09/05:14am 10.3 SW 17 30 1009.8 - 1.2 - Partly cloudy 10 - - - -
09/05:00am 10.0 SW 19 28 1009.6 - 1.2 - Partly cloudy 10 - - - -
09/04:37am 10.3 SW 20 33 1009.2 - 1.2 - Partly cloudy 10 - - - -
09/04:30am 10.4 SW 21 29 1009.1 - 1.2 - Partly cloudy 10 - - - -
09/04:06am 10.3 SW 22 32 1008.8 - 1.2 - Partly cloudy 10 - - - -
09/04:00am 10.4 SW 21 29 1008.8 - 1.2 - Partly cloudy 10 - - - -
09/03:30am 10.5 SW 22 30 1008.5 - 1.2 - Partly cloudy 10 - - - -
09/03:05am 10.3 SW 21 32 1008.2 - 1.2 - Partly cloudy 10 - - - -
09/03:00am 10.1 SW 20 29 1008.2 - 1.2 Rain Cloudy 10 - - - -
09/02:47am 10.1 SW 20 31 1008.0 - 1.0 - Partly cloudy 10 - - - -
09/02:30am 10.3 SW 18 26 1007.9 - 1.0 - Partly cloudy 10 - - - -
09/02:06am 10.7 SW 20 30 1007.6 - 0.8 - Partly cloudy 10 - - - -
09/02:00am 10.7 SW 23 30 1007.5 - 0.8 - Partly cloudy 10 - - - -
09/01:42am 10.6 SW 23 33 1007.4 - 0.8 - Partly cloudy 10 - - - -
09/01:30am 11.1 SW 24 32 1007.3 - 0.8 - Partly cloudy 10 - - - -
09/01:00am 10.9 WSW 21 31 1007.0 - 0.8 - Partly cloudy 10 - - - -
09/12:32am 10.9 SW 21 34 1006.8 - 0.8 - Partly cloudy 10 - - - -
09/12:30am 11.1 SW 21 29 1006.8 - 0.8 - Partly cloudy 10 - - - -
09/12:00am 11.0 SW 21 31 1006.2 - 0.8 Rain Cloudy 10 - - - -
 
Date/Time
EDT
Temp
°C
Wind Pressure Rain since
9am
mm
Weather Cloud Vis
km
Sea
Height
m
Swell
Dir  Spd
kts
Gust
kts
hPa Trend Height
m
Period
s
Dir
08/11:30pm 10.0 SW 21 32 1005.9 - 0.8 - Partly cloudy 10 - - - -
08/11:05pm 10.2 SW 23 33 1005.6 - 0.8 - Partly cloudy 10 - - - -
08/11:00pm 10.1 SW 23 32 1005.6 - 0.8 - Partly cloudy 7 - - - -
08/10:30pm 12.0 SW 25 37 1005.0 - 0.0 - Partly cloudy 10 - - - -
08/10:15pm 11.5 SW 20 31 1004.7 - 0.0 - Partly cloudy 10 - - - -
08/10:00pm 11.6 SW 22 31 1004.4 - 0.0 - Partly cloudy 10 - - - -
08/09:30pm 11.3 SW 23 33 1003.8 - 0.0 - Partly cloudy 10 - - - -
08/09:03pm 12.5 WSW 23 37 1003.0 - 0.0 - Partly cloudy 10 - - - -
08/09:00pm 12.5 WSW 23 32 1003.0 - 0.0 - Mostly cloudy 10 - - - -
08/08:30pm 12.8 WSW 23 34 1002.3 - 0.0 - Partly cloudy 10 - - - -
08/08:00pm 13.1 SW 25 36 1001.4 - 0.0 - Partly cloudy 10 - - - -
08/07:30pm 13.1 WSW 27 40 1000.5 - 0.0 - Partly cloudy 10 - - - -
08/07:01pm 13.5 WSW 26 36 999.5 - 0.0 - Partly cloudy 10 - - - -
08/07:00pm 13.5 WSW 27 36 999.5 - 0.0 - Partly cloudy 10 - - - -
08/06:40pm 13.6 WSW 29 41 998.7 - 0.0 - Partly cloudy 10 - - - -
08/06:30pm 13.5 WSW 27 35 998.5 - 0.0 - Partly cloudy 10 - - - -
08/06:00pm 13.8 WSW 28 39 997.5 - 0.0 - Cloudy 10 - - - -
08/05:30pm 12.8 WSW 25 38 996.7 - 0.0 - Partly cloudy 9 - - - -
08/05:00pm 14.3 WSW 26 37 996.0 - 0.0 - Partly cloudy 10 - - - -
08/04:33pm 14.4 W 24 35 995.3 - 0.0 - Partly cloudy 10 - - - -
08/04:30pm 14.6 W 24 33 995.3 - 0.0 - Partly cloudy 10 - - - -
08/04:03pm 15.4 W 25 35 994.7 - 0.0 - Partly cloudy 10 - - - -
08/04:00pm 15.6 W 26 34 994.7 - 0.0 - Partly cloudy 10 - - - -
08/03:30pm 14.8 W 26 40 994.2 - 0.0 - Partly cloudy 10 - - - -
08/03:00pm 13.8 W 29 40 993.6 - 0.0 Showers Mostly cloudy 8 - - - -
08/02:30pm 15.1 WNW 28 39 992.9 - 0.0 - Partly cloudy 10 - - - -
08/02:28pm 15.2 WNW 29 39 992.9 - 0.0 - Partly cloudy 10 - - - -
08/02:09pm 14.5 WNW 31 43 992.6 - 0.0 - Partly cloudy 5 - - - -
08/02:00pm 15.8 WNW 33 46 992.4 - 0.0 - Partly cloudy 10 - - - -
08/01:30pm 16.2 NW 35 45 992.1 - 0.0 - Partly cloudy 10 - - - -
08/01:00pm 14.8 NW 37 53 992.2 - 0.0 - Partly cloudy 8 - - - -
08/12:30pm 15.1 NW 37 50 992.2 - 0.0 - Cloudy 10 - - - -
08/12:00pm 16.7 NW 33 44 992.2 - 0.0 - Cloudy 9 - - - -
08/11:30am 16.6 NW 35 45 992.3 - 0.0 - Partly cloudy 10 - - - -
08/11:00am 15.9 NW 35 49 992.6 - 0.0 - Partly cloudy 10 - - - -
08/10:30am 15.7 NW 32 43 992.7 - 0.0 - Partly cloudy 10 - - - -
08/10:00am 15.2 NW 31 41 993.0 - 0.0 - Partly cloudy 10 - - - -
08/09:30am 15.0 WNW 27 37 992.7 - 0.0 - Partly cloudy 10 - - - -
08/09:13am 15.1 NW 29 39 992.7 - 0.0 - Partly cloudy 9 - - - -
08/09:00am 15.6 NW 25 38 992.4 - 5.2 Rain Cloudy 10 - - - -
08/08:59am 15.8 NW 24 33 992.3 - 5.2 - Partly cloudy 10 - - - -
08/08:55am 16.1 NNW 23 29 992.2 - 5.2 - Partly cloudy 10 - - - -
08/08:43am 16.2 NNW 24 33 992.1 - 5.0 - Partly cloudy 10 - - - -
08/08:30am 16.4 NNW 27 40 992.1 - 5.0 - Partly cloudy 5 - - - -
08/08:20am 16.7 NNW 25 39 992.1 - 5.0 - Partly cloudy 5 - - - -
08/08:19am 16.9 NNW 24 39 992.0 - 5.0 - Partly cloudy 6 - - - -
08/08:17am 16.9 N 22 32 991.7 - 4.8 - Partly cloudy 7 - - - -
08/08:00am 17.2 N 23 32 991.4 - 4.8 - Partly cloudy 10 - - - -
08/07:47am 17.5 N 22 32 991.4 - 4.8 - Cloudy 10 - - - -
08/07:30am 17.5 N 21 30 991.3 - 4.6 - Partly cloudy 10 - - - -
08/07:29am 17.5 N 21 30 991.3 - 4.6 - Partly cloudy 10 - - - -
08/07:17am 16.9 N 18 28 991.5 - 4.6 - Partly cloudy 5 - - - -
08/07:15am 16.9 N 18 27 991.5 - 4.6 - Partly cloudy 5 - - - -
08/07:00am 16.7 NNE 18 26 991.6 - 3.4 - Partly cloudy 10 - - - -
08/06:30am 15.9 NNE 15 19 992.3 - 3.4 - Partly cloudy 10 - - - -
08/06:00am 15.7 NE 17 22 992.9 - 3.4 Drizzle Cloudy 10 - - - -
08/05:30am 15.7 NE 12 16 994.3 - 2.8 - Partly cloudy 10 - - - -
08/05:00am 16.5 NNE 16 23 994.8 - 1.6 - Partly cloudy 10 - - - -
08/04:30am 17.4 NNE 14 19 995.8 - 0.8 - Partly cloudy 10 - - - -
08/04:00am 16.2 NE 15 19 995.1 - 0.4 - Partly cloudy 10 - - - -
08/03:36am 15.8 NE 16 26 995.8 - 0.4 - Partly cloudy 10 - - - -

Other Formats:

Comma delimited format used in spreadsheet applications
http://www.bom.gov.au/fwo/IDT60701/IDT60701.94850.axf

JavaScript Object Notation format (JSON) in row-major order
http://www.bom.gov.au/fwo/IDT60701/IDT60701.94850.json